Time;durP1;ratioP1;P1;durP2;ratioP2;P2;SDS_P1;SDS_P2;PMS_P1;PMS_P2;Temp;Humidity;BMP_temperature;BMP_pressure;BME280_temperature;BME280_humidity;BME280_pressure;Samples;Min_cycle;Max_cycle;Signal;HPM_P1;HPM_P2
2022/04/14 00:01:49;;;;;;;;;119.80;106.60;26.40;99.90;;;;;;5037241;28;8772;-69
2022/04/14 00:04:16;;;;;;;;;112.60;98.40;26.40;99.90;;;;;;5020024;28;8763;-68
2022/04/14 00:06:42;;;;;;;;;119.20;107.80;26.40;99.90;;;;;;5053376;28;8787;-68
2022/04/14 00:09:09;;;;;;;;;123.60;112.80;26.40;99.90;;;;;;5039100;28;8805;-69
2022/04/14 00:11:36;;;;;;;;;111.20;105.20;26.50;99.90;;;;;;5056390;28;8751;-68
2022/04/14 00:14:03;;;;;;;;;116.40;103.60;26.50;99.90;;;;;;5056614;28;8777;-69
2022/04/14 00:16:32;;;;;;;;;120.00;112.20;26.60;99.90;;;;;;5071525;28;8780;-68
2022/04/14 00:18:59;;;;;;;;;115.80;108.60;26.60;99.90;;;;;;5039669;28;8776;-69
2022/04/14 00:21:26;;;;;;;;;107.40;101.00;26.60;99.90;;;;;;5024135;28;8930;-68
2022/04/14 00:23:52;;;;;;;;;114.80;105.80;26.80;99.90;;;;;;5040503;28;8764;-69
2022/04/14 00:26:19;;;;;;;;;109.60;101.80;26.80;99.90;;;;;;5006371;28;8745;-68
2022/04/14 00:28:46;;;;;;;;;115.00;104.60;26.90;99.90;;;;;;5040328;28;8757;-69
2022/04/14 00:31:12;;;;;;;;;120.60;115.00;26.80;99.90;;;;;;5040905;28;8737;-69
2022/04/14 00:33:39;;;;;;;;;121.40;111.60;26.90;99.90;;;;;;5040521;28;8751;-68
2022/04/14 00:36:06;;;;;;;;;126.80;111.60;26.90;99.90;;;;;;5035005;28;9125;-69
2022/04/14 00:38:32;;;;;;;;;119.00;110.60;26.80;99.90;;;;;;5042555;28;8824;-68
2022/04/14 00:40:59;;;;;;;;;125.20;114.80;26.90;99.90;;;;;;5060156;28;8767;-69
2022/04/14 00:43:30;;;;;;;;;124.60;117.00;26.90;99.90;;;;;;5059769;28;8723;-69
2022/04/14 00:46:00;;;;;;;;;120.60;110.20;27.00;99.90;;;;;;5075943;28;8715;-69
2022/04/14 00:48:27;;;;;;;;;132.80;120.60;27.00;99.90;;;;;;5042269;28;8769;-68
2022/04/14 00:50:54;;;;;;;;;124.00;112.00;27.00;99.90;;;;;;5022389;28;8773;-69
2022/04/14 00:53:22;;;;;;;;;127.00;113.80;26.90;99.90;;;;;;5039881;28;8765;-68
2022/04/14 00:55:49;;;;;;;;;124.60;115.20;26.90;99.90;;;;;;5039345;28;8752;-69
2022/04/14 00:58:16;;;;;;;;;122.00;109.60;27.00;99.90;;;;;;5039468;28;9433;-69
2022/04/14 01:00:43;;;;;;;;;120.80;112.00;27.00;99.90;;;;;;5039564;28;8778;-69
2022/04/14 01:03:10;;;;;;;;;123.60;113.20;27.00;99.90;;;;;;5039723;28;9426;-69
2022/04/14 01:05:38;;;;;;;;;126.40;114.60;27.10;99.90;;;;;;5047226;28;8778;-69
2022/04/14 01:08:07;;;;;;;;;120.40;110.60;27.20;99.90;;;;;;5059582;28;8769;-69
2022/04/14 01:10:35;;;;;;;;;123.20;107.60;27.30;99.90;;;;;;5032342;28;8743;-69
2022/04/14 01:13:02;;;;;;;;;111.40;100.80;27.30;99.90;;;;;;5041370;28;8736;-69
2022/04/14 01:15:28;;;;;;;;;114.80;102.80;27.40;99.90;;;;;;5041803;28;9262;-69
2022/04/14 01:17:55;;;;;;;;;102.00;92.40;27.40;99.90;;;;;;5059778;28;8720;-69
2022/04/14 01:20:22;;;;;;;;;104.80;95.20;27.40;99.90;;;;;;5053330;28;8766;-68
2022/04/14 01:22:59;;;;;;;;;107.40;95.40;27.40;99.90;;;;;;5039969;28;8780;-69
2022/04/14 01:25:26;;;;;;;;;97.60;92.20;27.40;99.90;;;;;;5039454;28;8721;-68
2022/04/14 01:27:53;;;;;;;;;113.60;97.80;27.50;99.90;;;;;;5039950;28;8741;-69
2022/04/14 01:30:20;;;;;;;;;110.40;98.80;27.50;99.90;;;;;;5039077;28;8756;-69
2022/04/14 01:32:47;;;;;;;;;108.60;95.60;27.60;99.90;;;;;;5021487;28;9405;-69
2022/04/14 01:35:13;;;;;;;;;107.80;94.20;27.60;99.90;;;;;;5043911;28;8755;-69
2022/04/14 01:37:43;;;;;;;;;100.60;89.20;27.70;99.90;;;;;;5059189;28;8731;-69
2022/04/14 01:40:10;;;;;;;;;107.60;93.20;27.70;99.90;;;;;;5059673;28;8765;-69
2022/04/14 01:42:36;;;;;;;;;107.00;98.00;27.70;99.90;;;;;;5058847;28;8757;-69
2022/04/14 01:45:04;;;;;;;;;106.40;92.80;27.70;99.90;;;;;;5041062;28;8707;-69
2022/04/14 01:47:31;;;;;;;;;110.00;99.20;27.70;99.90;;;;;;5058566;28;8755;-69
2022/04/14 01:49:57;;;;;;;;;95.60;87.40;27.80;99.90;;;;;;5056232;28;8777;-69
2022/04/14 01:52:24;;;;;;;;;100.60;94.40;27.80;99.90;;;;;;5039599;28;8721;-69
2022/04/14 01:54:51;;;;;;;;;97.80;89.20;27.80;99.90;;;;;;5039374;28;8781;-69
2022/04/14 01:57:17;;;;;;;;;98.80;88.80;27.80;99.90;;;;;;5020959;28;8789;-68
2022/04/14 01:59:44;;;;;;;;;94.80;86.00;27.80;99.90;;;;;;5021128;28;8781;-69
2022/04/14 02:02:11;;;;;;;;;103.40;89.80;27.90;99.90;;;;;;5036893;28;8785;-69
2022/04/14 02:04:37;;;;;;;;;105.40;93.60;28.00;99.90;;;;;;5053918;28;8800;-69
2022/04/14 02:07:05;;;;;;;;;98.40;92.60;28.00;99.90;;;;;;5059382;28;8799;-69
2022/04/14 02:09:31;;;;;;;;;98.40;94.00;28.10;99.90;;;;;;5058380;28;8766;-64
2022/04/14 02:11:58;;;;;;;;;94.60;85.20;28.00;99.90;;;;;;5059254;28;8840;-69
2022/04/14 02:14:25;;;;;;;;;91.20;87.40;28.10;99.90;;;;;;5058302;28;8767;-69
2022/04/14 02:16:53;;;;;;;;;103.20;97.80;28.10;99.90;;;;;;5058686;28;8751;-69
2022/04/14 02:19:20;;;;;;;;;100.20;92.40;28.10;99.90;;;;;;5041255;28;8743;-68
2022/04/14 02:21:46;;;;;;;;;84.80;77.80;28.10;99.90;;;;;;5041086;28;8768;-69
2022/04/14 02:24:13;;;;;;;;;101.20;90.60;28.20;99.90;;;;;;5021108;28;8757;-69
2022/04/14 02:26:40;;;;;;;;;91.20;82.40;28.30;99.90;;;;;;5020870;28;8878;-69
2022/04/14 02:29:06;;;;;;;;;107.20;94.20;28.40;99.90;;;;;;5038529;28;8753;-69
2022/04/14 02:31:33;;;;;;;;;108.80;99.40;28.40;99.90;;;;;;5038350;28;8769;-68
2022/04/14 02:34:00;;;;;;;;;94.60;86.60;28.50;99.90;;;;;;5021557;28;8733;-69
2022/04/14 02:36:26;;;;;;;;;96.80;89.60;28.50;99.90;;;;;;5068077;28;8779;-68
2022/04/14 02:38:53;;;;;;;;;95.00;84.00;28.50;99.90;;;;;;5058516;28;8801;-69
2022/04/14 02:41:19;;;;;;;;;100.00;89.20;28.60;99.90;;;;;;5023933;28;8771;-68
2022/04/14 02:43:47;;;;;;;;;101.60;90.80;28.60;99.90;;;;;;5073536;28;8743;-69
2022/04/14 02:46:20;;;;;;;;;94.20;87.40;28.60;99.90;;;;;;5058164;28;8731;-69
2022/04/14 02:48:50;;;;;;;;;99.80;90.20;28.70;99.90;;;;;;5058037;28;8754;-68
2022/04/14 02:51:19;;;;;;;;;99.40;89.80;28.60;99.90;;;;;;5026710;28;8863;-68
2022/04/14 02:53:45;;;;;;;;;94.40;86.60;28.70;99.90;;;;;;5038080;28;8768;-68
2022/04/14 02:56:12;;;;;;;;;101.00;91.00;28.80;99.90;;;;;;5038077;28;8791;-68
2022/04/14 02:58:39;;;;;;;;;101.20;91.80;28.90;99.90;;;;;;5037767;28;8755;-68
2022/04/14 03:01:05;;;;;;;;;94.20;86.40;29.00;99.90;;;;;;5020678;28;8739;-68
2022/04/14 03:03:32;;;;;;;;;94.00;86.40;28.90;99.90;;;;;;5019917;28;8800;-68
2022/04/14 03:05:58;;;;;;;;;106.40;95.20;28.90;99.90;;;;;;5048769;28;8745;-68
2022/04/14 03:08:25;;;;;;;;;96.60;88.20;28.90;99.90;;;;;;5057810;28;8775;-67
2022/04/14 03:10:53;;;;;;;;;91.80;84.40;29.00;99.90;;;;;;5057654;28;8755;-68
2022/04/14 03:13:20;;;;;;;;;88.80;83.00;29.10;99.90;;;;;;5058343;28;8734;-67
2022/04/14 03:15:49;;;;;;;;;96.80;87.00;29.20;99.90;;;;;;5058035;28;8720;-68
2022/04/14 03:18:16;;;;;;;;;89.20;83.60;29.10;99.90;;;;;;5039778;28;8728;-68
2022/04/14 03:20:42;;;;;;;;;92.60;82.00;29.20;99.90;;;;;;5031128;28;8820;-68
2022/04/14 03:23:11;;;;;;;;;86.00;84.00;29.30;99.90;;;;;;5037632;28;8770;-67
2022/04/14 03:25:41;;;;;;;;;87.20;80.60;29.30;99.90;;;;;;5037089;28;8747;-67
2022/04/14 03:28:08;;;;;;;;;93.00;85.00;29.30;99.90;;;;;;5038223;28;8727;-68
2022/04/14 03:30:34;;;;;;;;;92.20;88.40;29.30;99.90;;;;;;5036793;28;8729;-67
2022/04/14 03:33:01;;;;;;;;;87.20;81.60;29.40;99.90;;;;;;5037341;28;8802;-68
2022/04/14 03:35:28;;;;;;;;;83.40;81.20;29.40;99.90;;;;;;5059170;28;8763;-67
2022/04/14 03:37:54;;;;;;;;;86.20;82.20;29.50;99.90;;;;;;5057335;28;8771;-68
2022/04/14 03:40:21;;;;;;;;;89.40;82.00;29.60;99.90;;;;;;5073275;28;8853;-67
2022/04/14 03:42:48;;;;;;;;;85.80;77.80;29.60;99.90;;;;;;5057113;28;8731;-68
2022/04/14 03:45:14;;;;;;;;;86.20;81.80;29.70;99.90;;;;;;5057222;28;8739;-68
2022/04/14 03:47:41;;;;;;;;;85.80;80.60;29.60;99.90;;;;;;5057048;28;8797;-68
2022/04/14 03:50:08;;;;;;;;;90.60;82.00;29.80;99.90;;;;;;5036100;28;8757;-68
2022/04/14 03:52:35;;;;;;;;;80.60;71.00;29.80;99.90;;;;;;5029232;28;8745;-68
2022/04/14 03:55:02;;;;;;;;;85.00;79.60;29.80;99.90;;;;;;5037766;28;8725;-68
2022/04/14 03:57:28;;;;;;;;;86.80;80.00;29.90;99.90;;;;;;5018864;28;8805;-68
2022/04/14 03:59:55;;;;;;;;;79.20;70.40;30.00;99.90;;;;;;5037077;28;8795;-68
2022/04/14 04:02:22;;;;;;;;;81.80;76.60;30.00;99.90;;;;;;5035993;28;8753;-68
2022/04/14 04:04:49;;;;;;;;;82.20;77.60;29.90;99.90;;;;;;5053349;28;8753;-68
2022/04/14 04:07:15;;;;;;;;;83.60;74.80;29.90;99.90;;;;;;5057395;28;8791;-67
2022/04/14 04:09:42;;;;;;;;;79.80;73.80;30.00;99.90;;;;;;5056607;28;8948;-67
2022/04/14 04:12:09;;;;;;;;;78.00;73.40;30.10;99.90;;;;;;5072558;28;8820;-68
2022/04/14 04:14:36;;;;;;;;;83.60;76.20;30.20;99.90;;;;;;5048747;28;8766;-68
2022/04/14 04:17:04;;;;;;;;;80.40;75.20;30.20;99.90;;;;;;5056922;28;8759;-67
2022/04/14 04:19:32;;;;;;;;;85.80;75.20;30.40;99.90;;;;;;5056709;28;8782;-68
2022/04/14 04:21:58;;;;;;;;;82.40;75.00;30.50;99.90;;;;;;5038236;28;8777;-67
2022/04/14 04:24:25;;;;;;;;;84.20;78.00;30.30;99.90;;;;;;5036303;28;8769;-67
2022/04/14 04:26:52;;;;;;;;;81.60;74.60;30.40;99.90;;;;;;5036496;28;8808;-67
2022/04/14 04:29:19;;;;;;;;;79.60;75.00;30.60;99.90;;;;;;5036606;28;8771;-67
2022/04/14 04:31:46;;;;;;;;;78.20;70.80;30.60;99.90;;;;;;5052076;28;10468;-68
2022/04/14 04:34:12;;;;;;;;;78.60;74.60;30.50;99.90;;;;;;5036927;28;8767;-67
2022/04/14 04:36:39;;;;;;;;;78.80;70.00;30.40;99.90;;;;;;5052627;28;9365;-67
2022/04/14 04:39:05;;;;;;;;;81.60;75.40;30.30;99.90;;;;;;5056551;28;9002;-68
2022/04/14 04:41:32;;;;;;;;;80.40;72.60;30.50;99.90;;;;;;5038994;28;8880;-68
2022/04/14 04:43:59;;;;;;;;;81.80;75.80;30.80;99.90;;;;;;5056147;28;8771;-67
2022/04/14 04:46:26;;;;;;;;;80.40;75.60;30.80;99.90;;;;;;5054882;28;8724;-67
2022/04/14 04:48:52;;;;;;;;;80.00;70.00;30.90;99.90;;;;;;5057559;28;8739;-67
2022/04/14 04:51:19;;;;;;;;;82.80;74.80;30.90;99.90;;;;;;5042991;28;8830;-67
2022/04/14 04:53:46;;;;;;;;;80.80;76.40;30.80;99.90;;;;;;5019477;28;9098;-67
2022/04/14 04:56:13;;;;;;;;;81.80;70.80;30.80;99.90;;;;;;5019459;28;8781;-68
2022/04/14 04:58:39;;;;;;;;;78.20;72.00;30.90;99.90;;;;;;5002794;28;8729;-68
2022/04/14 05:01:06;;;;;;;;;77.40;71.20;31.10;99.90;;;;;;5037208;28;8745;-68
2022/04/14 05:03:33;;;;;;;;;84.20;76.80;31.20;99.90;;;;;;5036667;28;8753;-67
2022/04/14 05:06:02;;;;;;;;;79.40;70.20;31.40;99.90;;;;;;5048208;28;9438;-68
2022/04/14 05:08:29;;;;;;;;;83.20;77.40;31.30;99.90;;;;;;5041548;28;8773;-68
2022/04/14 05:10:56;;;;;;;;;79.80;71.00;31.20;99.90;;;;;;5060630;28;8865;-68
2022/04/14 05:13:22;;;;;;;;;80.40;71.60;31.20;99.90;;;;;;5060748;28;8727;-67
2022/04/14 05:15:49;;;;;;;;;81.60;70.80;31.30;99.90;;;;;;5051317;28;8745;-68
2022/04/14 05:18:16;;;;;;;;;78.80;75.20;31.30;99.90;;;;;;5025647;28;8792;-68
2022/04/14 05:20:42;;;;;;;;;80.20;75.00;31.50;99.90;;;;;;5034070;28;8721;-67
2022/04/14 05:23:12;;;;;;;;;79.40;73.80;31.30;99.90;;;;;;5040068;28;8791;-68
2022/04/14 05:25:41;;;;;;;;;78.20;72.40;31.20;99.90;;;;;;5018588;28;8756;-68
2022/04/14 05:28:08;;;;;;;;;81.00;73.20;31.50;99.90;;;;;;5019822;28;8768;-67
2022/04/14 05:30:35;;;;;;;;;76.60;66.60;31.70;99.90;;;;;;5031598;28;8970;-67
2022/04/14 05:33:02;;;;;;;;;80.20;71.60;31.70;99.90;;;;;;5039687;28;8736;-68
2022/04/14 05:35:28;;;;;;;;;81.40;74.40;31.80;99.90;;;;;;5061124;28;9426;-68
2022/04/14 05:37:55;;;;;;;;;84.20;76.00;31.80;99.90;;;;;;5059738;28;8762;-68
2022/04/14 05:40:22;;;;;;;;;76.80;67.40;31.60;99.90;;;;;;5060390;28;8746;-67
2022/04/14 05:42:51;;;;;;;;;76.20;65.00;31.60;99.90;;;;;;5060185;28;8754;-68
2022/04/14 05:45:19;;;;;;;;;80.60;69.20;31.50;99.90;;;;;;5042639;28;8778;-66
2022/04/14 05:47:45;;;;;;;;;75.80;66.20;31.50;99.90;;;;;;5042632;28;8834;-67
2022/04/14 05:50:12;;;;;;;;;79.00;70.00;31.70;99.90;;;;;;5055354;28;8755;-67
2022/04/14 05:52:39;;;;;;;;;72.80;58.00;31.70;99.90;;;;;;5038825;28;8733;-67
2022/04/14 05:55:06;;;;;;;;;70.80;61.20;32.00;99.90;;;;;;5040370;28;8769;-67
2022/04/14 05:57:33;;;;;;;;;73.80;65.20;32.20;99.90;;;;;;5021342;28;8854;-68
2022/04/14 05:59:59;;;;;;;;;75.40;63.80;32.30;99.90;;;;;;5021430;28;8757;-67
2022/04/14 06:02:26;;;;;;;;;78.00;68.40;32.00;99.90;;;;;;5038634;28;8753;-68
2022/04/14 06:04:55;;;;;;;;;75.60;64.80;31.90;99.90;;;;;;5022725;28;8764;-67
2022/04/14 06:07:22;;;;;;;;;78.00;67.40;31.90;99.90;;;;;;5059343;28;8802;-67
2022/04/14 06:09:49;;;;;;;;;79.00;69.00;32.00;99.90;;;;;;5059308;28;8774;-68
2022/04/14 06:12:15;;;;;;;;;74.80;66.80;32.10;99.90;;;;;;5063296;28;8782;-68
2022/04/14 06:14:42;;;;;;;;;74.60;64.60;32.40;99.90;;;;;;5041961;28;8743;-67
2022/04/14 06:17:09;;;;;;;;;70.40;60.40;32.30;99.90;;;;;;5058553;28;8797;-68
2022/04/14 06:19:35;;;;;;;;;75.40;68.20;32.40;99.90;;;;;;5049096;28;8824;-67
2022/04/14 06:22:02;;;;;;;;;74.20;65.60;32.10;99.90;;;;;;5039503;28;8729;-68
2022/04/14 06:24:29;;;;;;;;;77.80;65.20;32.00;99.90;;;;;;5037028;28;8796;-68
2022/04/14 06:26:56;;;;;;;;;74.20;63.40;32.20;99.90;;;;;;5038230;28;8812;-68
2022/04/14 06:29:22;;;;;;;;;72.00;63.40;32.40;99.90;;;;;;5004157;28;8757;-68
2022/04/14 06:31:49;;;;;;;;;74.60;67.00;32.50;99.50;;;;;;5038288;28;8761;-68
2022/04/14 06:34:16;;;;;;;;;76.20;66.60;32.30;99.90;;;;;;5038826;28;8745;-68
2022/04/14 06:36:42;;;;;;;;;76.20;66.60;32.40;99.90;;;;;;5055465;28;8751;-68
2022/04/14 06:39:12;;;;;;;;;76.40;67.20;32.40;99.90;;;;;;5058772;28;8771;-68
2022/04/14 06:41:39;;;;;;;;;71.80;59.20;32.40;99.90;;;;;;5058212;28;8790;-68
2022/04/14 06:44:06;;;;;;;;;76.80;66.60;32.50;99.90;;;;;;5058513;28;8763;-68
2022/04/14 06:46:33;;;;;;;;;73.60;62.20;32.50;99.60;;;;;;5058111;28;8739;-68
2022/04/14 06:49:00;;;;;;;;;74.00;64.20;32.50;99.80;;;;;;5041013;28;8751;-68
2022/04/14 06:51:27;;;;;;;;;75.60;68.20;32.60;99.90;;;;;;5058847;28;8850;-68
2022/04/14 06:53:53;;;;;;;;;76.60;66.00;32.90;99.70;;;;;;5020736;28;8753;-68
2022/04/14 06:56:20;;;;;;;;;70.20;58.00;32.90;99.50;;;;;;5037845;28;8804;-68
2022/04/14 06:58:46;;;;;;;;;68.40;55.40;32.70;99.50;;;;;;5038203;28;8985;-68
2022/04/14 07:01:13;;;;;;;;;77.80;65.00;32.80;98.30;;;;;;5038452;28;8781;-68
2022/04/14 07:03:40;;;;;;;;;69.60;60.20;32.70;98.90;;;;;;5038083;28;8729;-68
2022/04/14 07:06:07;;;;;;;;;72.20;57.40;32.70;98.80;;;;;;5049747;28;8785;-68
2022/04/14 07:08:33;;;;;;;;;74.40;61.60;32.70;99.10;;;;;;5057746;28;8755;-68
2022/04/14 07:11:01;;;;;;;;;74.40;62.80;32.80;99.40;;;;;;5057835;28;8881;-68
2022/04/14 07:13:28;;;;;;;;;72.40;59.80;33.00;98.80;;;;;;5058268;28;8734;-68
2022/04/14 07:15:55;;;;;;;;;72.20;62.20;33.00;97.60;;;;;;5041514;28;8749;-68
2022/04/14 07:18:23;;;;;;;;;70.40;64.00;33.20;97.30;;;;;;5058460;28;8739;-68
2022/04/14 07:20:49;;;;;;;;;73.40;63.20;33.20;96.50;;;;;;5031561;28;8713;-68
2022/04/14 07:23:16;;;;;;;;;73.60;61.40;33.10;97.20;;;;;;5053569;28;8791;-67
2022/04/14 07:25:44;;;;;;;;;70.40;57.60;33.20;95.70;;;;;;5037571;28;9410;-67
2022/04/14 07:28:11;;;;;;;;;73.00;60.00;33.20;95.10;;;;;;5020371;28;8764;-68
2022/04/14 07:30:39;;;;;;;;;69.40;56.80;33.20;94.00;;;;;;5019278;28;8844;-68
2022/04/14 07:33:06;;;;;;;;;69.60;54.60;33.30;94.60;;;;;;5037203;28;8745;-68
2022/04/14 07:35:33;;;;;;;;;73.20;61.20;33.20;93.90;;;;;;5044028;28;8758;-68
2022/04/14 07:38:00;;;;;;;;;73.00;60.80;33.40;93.80;;;;;;5039498;28;8728;-68
2022/04/14 07:40:27;;;;;;;;;73.00;63.00;33.30;95.30;;;;;;5039221;28;8749;-66
2022/04/14 07:42:55;;;;;;;;;71.80;61.40;33.20;95.50;;;;;;5040170;28;8731;-68
2022/04/14 07:45:22;;;;;;;;;68.80;56.40;33.10;96.30;;;;;;5039023;28;8711;-67
2022/04/14 07:47:48;;;;;;;;;71.20;61.80;33.20;95.10;;;;;;5057068;28;8726;-68
2022/04/14 07:50:16;;;;;;;;;69.60;55.60;33.10;96.20;;;;;;5052159;28;8769;-68
2022/04/14 07:52:56;;;;;;;;;72.80;60.40;33.10;97.20;;;;;;5036789;28;8761;-68
2022/04/14 07:55:25;;;;;;;;;74.60;64.40;33.10;96.90;;;;;;5037330;28;8709;-67
2022/04/14 07:57:53;;;;;;;;;66.20;54.60;33.20;97.20;;;;;;5019144;28;9845;-68
2022/04/14 08:00:28;;;;;;;;;72.00;62.20;33.20;96.70;;;;;;5036506;28;8725;-66
2022/04/14 08:02:59;;;;;;;;;70.60;59.80;33.10;97.00;;;;;;5051784;28;9430;-68
2022/04/14 08:05:29;;;;;;;;;68.00;52.60;33.20;97.00;;;;;;5042645;28;9407;-68
2022/04/14 08:07:56;;;;;;;;;73.00;62.60;33.20;97.30;;;;;;5056628;28;8827;-68
2022/04/14 08:10:23;;;;;;;;;69.40;57.00;33.00;97.40;;;;;;5039538;28;8730;-67
2022/04/14 08:12:50;;;;;;;;;71.80;60.40;33.10;96.40;;;;;;5057173;28;8774;-69
2022/04/14 08:15:16;;;;;;;;;71.60;59.60;33.30;97.10;;;;;;5056504;28;8784;-68
2022/04/14 08:17:43;;;;;;;;;72.00;60.40;33.20;97.70;;;;;;5056328;28;8751;-68
2022/04/14 08:20:11;;;;;;;;;68.80;59.20;33.20;97.00;;;;;;5052476;28;8781;-68
2022/04/14 08:22:49;;;;;;;;;71.80;64.80;33.20;97.00;;;;;;5036392;28;8803;-68
2022/04/14 08:25:20;;;;;;;;;70.00;55.80;33.10;96.70;;;;;;5037087;28;8814;-68
2022/04/14 08:27:47;;;;;;;;;71.60;61.00;33.30;96.40;;;;;;5036235;28;8793;-68
2022/04/14 08:30:15;;;;;;;;;72.40;61.00;33.60;95.80;;;;;;5036505;28;8814;-68
2022/04/14 08:32:42;;;;;;;;;71.60;59.40;33.40;96.40;;;;;;5036380;28;8787;-68
2022/04/14 08:35:09;;;;;;;;;67.20;54.80;33.40;95.30;;;;;;5022495;28;9471;-67
2022/04/14 08:37:39;;;;;;;;;69.20;57.80;33.30;95.30;;;;;;5056208;28;8809;-68
2022/04/14 08:40:07;;;;;;;;;68.20;56.80;33.60;96.30;;;;;;5057016;28;8751;-67
2022/04/14 08:42:41;;;;;;;;;71.40;58.60;33.50;95.50;;;;;;5056314;28;8793;-68
2022/04/14 08:45:09;;;;;;;;;72.60;62.40;33.30;96.30;;;;;;5060204;28;8775;-68
2022/04/14 08:47:37;;;;;;;;;68.00;56.20;33.40;96.80;;;;;;5017595;28;8898;-68
2022/04/14 08:50:04;;;;;;;;;69.20;58.80;33.30;96.70;;;;;;5039242;28;8770;-67
2022/04/14 08:52:33;;;;;;;;;72.80;64.40;33.20;97.40;;;;;;5040265;28;8925;-68
2022/04/14 08:55:04;;;;;;;;;73.00;61.80;33.30;97.20;;;;;;5040746;28;8743;-68
2022/04/14 08:57:31;;;;;;;;;73.00;60.40;33.30;97.10;;;;;;5022072;28;8896;-68
2022/04/14 08:59:59;;;;;;;;;72.80;60.20;33.50;96.00;;;;;;5022436;28;8786;-68
2022/04/14 09:02:26;;;;;;;;;72.60;60.20;33.40;96.10;;;;;;5055004;28;8785;-68
2022/04/14 09:04:53;;;;;;;;;69.80;56.60;33.50;95.00;;;;;;5023923;28;8785;-68
2022/04/14 09:07:19;;;;;;;;;71.00;57.60;33.50;94.00;;;;;;5059644;28;8871;-68
2022/04/14 09:09:47;;;;;;;;;68.80;55.80;33.40;95.10;;;;;;5060014;28;8732;-68
2022/04/14 09:12:14;;;;;;;;;64.60;50.80;33.40;93.20;;;;;;5059994;28;8764;-68
2022/04/14 09:14:41;;;;;;;;;66.60;53.00;33.50;93.00;;;;;;5059758;28;8756;-68
2022/04/14 09:17:09;;;;;;;;;64.40;50.80;33.40;91.90;;;;;;5041900;28;8732;-68
2022/04/14 09:19:36;;;;;;;;;71.60;57.40;33.50;92.10;;;;;;5041733;28;9835;-68
2022/04/14 09:22:11;;;;;;;;;68.80;54.20;33.40;91.80;;;;;;5041020;28;8727;-68
2022/04/14 09:24:43;;;;;;;;;67.80;53.00;33.20;92.20;;;;;;5039669;28;8758;-68
2022/04/14 09:27:31;;;;;;;;;69.60;56.40;33.50;91.40;;;;;;5039895;28;8770;-68
2022/04/14 09:30:03;;;;;;;;;68.40;54.80;33.40;91.50;;;;;;5021907;28;9442;-68
2022/04/14 09:32:30;;;;;;;;;68.80;54.40;33.50;91.10;;;;;;5039007;28;8770;-68
2022/04/14 09:34:58;;;;;;;;;70.60;54.20;33.30;92.50;;;;;;5023430;28;8751;-68
2022/04/14 09:37:26;;;;;;;;;67.60;55.80;33.50;92.00;;;;;;5041140;28;9318;-63
2022/04/14 09:40:05;;;;;;;;;64.80;52.40;33.60;91.10;;;;;;5059971;28;8774;-68
2022/04/14 09:42:33;;;;;;;;;69.20;53.60;33.60;90.50;;;;;;5041478;28;8818;-68
2022/04/14 09:45:25;;;;;;;;;63.80;50.80;33.60;91.00;;;;;;5064059;28;9409;-68
2022/04/14 09:47:53;;;;;;;;;66.40;53.00;33.60;90.80;;;;;;5059327;28;8776;-68
2022/04/14 09:50:27;;;;;;;;;69.20;54.20;33.70;90.30;;;;;;5054486;28;8864;-68
2022/04/14 09:53:07;;;;;;;;;62.80;49.40;33.60;89.60;;;;;;5039817;28;8774;-68
2022/04/14 09:55:34;;;;;;;;;68.40;56.20;33.50;90.60;;;;;;5039713;28;8908;-68
2022/04/14 09:58:12;;;;;;;;;66.80;53.80;33.40;89.70;;;;;;5055480;28;8746;-68
2022/04/14 10:00:45;;;;;;;;;70.40;54.00;33.10;90.30;;;;;;5039865;28;8837;-68
2022/04/14 10:03:13;;;;;;;;;68.60;55.20;33.00;90.40;;;;;;5022322;28;8758;-68
2022/04/14 10:05:39;;;;;;;;;67.20;54.40;33.00;90.90;;;;;;5047110;28;8761;-68
2022/04/14 10:08:09;;;;;;;;;65.60;51.60;33.00;91.10;;;;;;5041336;28;8748;-68
2022/04/14 10:10:39;;;;;;;;;67.40;53.00;33.00;90.90;;;;;;5058614;28;8729;-68
2022/04/14 10:13:07;;;;;;;;;67.40;52.80;32.90;91.70;;;;;;5058434;28;9385;-68
2022/04/14 10:15:37;;;;;;;;;67.20;54.00;33.00;90.70;;;;;;5074006;28;8760;-68
2022/04/14 10:18:09;;;;;;;;;66.80;53.20;33.00;91.10;;;;;;5058866;28;8871;-68
2022/04/14 10:20:37;;;;;;;;;67.60;54.20;33.10;91.50;;;;;;5050681;28;8751;-67
2022/04/14 10:23:04;;;;;;;;;66.20;52.80;33.00;92.20;;;;;;5038713;28;8735;-68
2022/04/14 10:25:32;;;;;;;;;66.40;52.60;33.00;92.10;;;;;;5053990;28;9458;-68
2022/04/14 10:28:00;;;;;;;;;67.00;52.00;33.10;91.70;;;;;;5039049;28;8890;-68
2022/04/14 10:30:27;;;;;;;;;64.60;53.00;33.20;92.60;;;;;;5038646;28;8832;-68
2022/04/14 10:32:57;;;;;;;;;68.00;53.80;33.30;92.60;;;;;;5054249;28;8767;-68
2022/04/14 10:35:28;;;;;;;;;72.60;52.40;33.20;92.80;;;;;;5043618;28;8745;-68
2022/04/14 10:38:23;;;;;;;;;66.20;54.20;33.20;92.20;;;;;;5057909;28;8748;-68
2022/04/14 10:41:07;;;;;;;;;65.80;52.60;33.00;92.90;;;;;;5039986;28;8866;-68
2022/04/14 10:43:34;;;;;;;;;69.20;55.00;32.80;94.00;;;;;;5055051;28;8818;-67
2022/04/14 10:46:01;;;;;;;;;64.00;50.60;32.80;93.50;;;;;;5058962;28;8842;-68
2022/04/14 10:48:32;;;;;;;;;69.80;56.00;32.70;93.70;;;;;;5058086;28;9445;-68
2022/04/14 10:51:18;;;;;;;;;70.00;56.40;32.70;94.50;;;;;;5029973;28;8794;-68
2022/04/14 10:54:05;;;;;;;;;64.80;53.80;32.70;94.20;;;;;;5038554;28;8750;-68
2022/04/14 10:56:34;;;;;;;;;69.40;56.40;32.80;95.10;;;;;;5038071;28;9189;-68
2022/04/14 10:59:01;;;;;;;;;66.80;53.60;32.80;96.40;;;;;;5020274;28;9501;-68
2022/04/14 11:01:46;;;;;;;;;67.80;53.60;32.60;96.00;;;;;;5036100;28;8895;-67
2022/04/14 11:04:27;;;;;;;;;68.40;53.80;32.60;95.70;;;;;;5038858;28;8762;-68
2022/04/14 11:07:09;;;;;;;;;70.00;54.80;32.50;95.30;;;;;;5055553;28;8873;-68
2022/04/14 11:09:42;;;;;;;;;72.00;58.00;32.50;95.20;;;;;;5031588;28;9239;-68
2022/04/14 11:12:09;;;;;;;;;67.40;53.60;32.50;94.80;;;;;;5058029;28;8783;-68
2022/04/14 11:14:54;;;;;;;;;68.40;54.00;32.40;94.80;;;;;;5057423;28;8942;-68
2022/04/14 11:17:33;;;;;;;;;70.40;55.00;32.40;94.90;;;;;;5057435;28;8760;-67
2022/04/14 11:20:24;;;;;;;;;67.40;52.80;32.40;95.00;;;;;;5037396;28;8770;-68
2022/04/14 11:23:12;;;;;;;;;70.40;59.60;32.40;95.70;;;;;;5037921;28;8849;-68
2022/04/14 11:25:49;;;;;;;;;75.40;60.80;32.30;96.50;;;;;;5038141;28;8777;-68
2022/04/14 11:28:21;;;;;;;;;68.20;55.00;32.30;96.30;;;;;;5038147;28;9481;-68
2022/04/14 11:30:54;;;;;;;;;70.00;57.40;32.30;96.40;;;;;;5037798;28;8923;-68
2022/04/14 11:33:30;;;;;;;;;74.80;63.60;32.20;96.50;;;;;;5037505;28;8770;-67
2022/04/14 11:36:20;;;;;;;;;72.20;57.80;32.20;97.90;;;;;;5047388;28;8756;-68
2022/04/14 11:38:53;;;;;;;;;76.00;66.40;32.10;97.90;;;;;;5049700;28;8760;-68
2022/04/14 11:41:37;;;;;;;;;74.40;63.80;32.10;99.40;;;;;;5071739;28;9409;-68
2022/04/14 11:44:09;;;;;;;;;76.20;66.00;32.10;98.60;;;;;;5039564;28;8741;-68
2022/04/14 11:46:39;;;;;;;;;74.40;66.00;32.00;98.10;;;;;;5056629;28;9389;-68
2022/04/14 11:49:06;;;;;;;;;75.80;68.00;32.00;99.10;;;;;;5057074;28;8744;-68
2022/04/14 11:51:39;;;;;;;;;76.20;65.40;31.90;99.90;;;;;;5041153;28;8766;-68
2022/04/14 11:54:06;;;;;;;;;73.20;60.20;31.90;99.90;;;;;;5035309;28;8754;-68
2022/04/14 11:56:32;;;;;;;;;77.60;65.60;31.80;99.90;;;;;;5051979;28;8812;-68
2022/04/14 11:58:59;;;;;;;;;75.00;65.40;31.80;99.90;;;;;;5035160;28;8743;-68
2022/04/14 12:01:26;;;;;;;;;72.80;62.60;31.80;99.90;;;;;;5036011;28;8781;-67
2022/04/14 12:03:52;;;;;;;;;74.40;64.00;31.70;99.50;;;;;;5002684;28;8741;-68
2022/04/14 12:06:19;;;;;;;;;73.40;59.40;31.70;99.90;;;;;;5048872;28;8767;-68
2022/04/14 12:08:59;;;;;;;;;73.80;61.20;31.70;99.90;;;;;;5071226;28;8751;-68
2022/04/14 12:11:29;;;;;;;;;74.80;61.80;31.70;99.90;;;;;;5038077;28;8754;-68
2022/04/14 12:13:56;;;;;;;;;77.60;69.00;31.70;99.90;;;;;;5056026;28;8759;-68
2022/04/14 12:16:33;;;;;;;;;74.60;62.60;31.70;99.90;;;;;;5055766;28;8734;-68
2022/04/14 12:19:02;;;;;;;;;74.00;64.00;31.50;99.90;;;;;;5037284;28;8766;-68
2022/04/14 12:21:29;;;;;;;;;79.00;70.20;31.30;99.90;;;;;;5040494;28;9551;-67
2022/04/14 12:23:58;;;;;;;;;84.20;71.40;31.30;99.90;;;;;;5035762;28;9456;-68
2022/04/14 12:26:30;;;;;;;;;71.60;57.80;31.40;99.90;;;;;;5035542;28;8774;-68
2022/04/14 12:28:56;;;;;;;;;73.20;60.80;31.30;99.90;;;;;;5035728;28;8887;-68
2022/04/14 12:31:25;;;;;;;;;71.20;58.00;31.30;99.90;;;;;;5035760;28;8756;-68
2022/04/14 12:33:58;;;;;;;;;72.60;56.20;31.20;99.80;;;;;;5035916;28;8807;-68
2022/04/14 12:36:35;;;;;;;;;66.80;53.00;31.30;98.60;;;;;;5049343;28;8841;-68
2022/04/14 12:39:04;;;;;;;;;65.20;52.40;31.40;98.00;;;;;;5055624;28;9427;-68
2022/04/14 12:41:38;;;;;;;;;67.40;51.60;31.40;97.40;;;;;;5054359;28;8743;-68